createdAt,value
2023-04-10T00:00:57.657Z,6.90
2023-04-10T00:03:27.664Z,6.90
2023-04-10T00:05:57.430Z,6.80
2023-04-10T00:08:27.165Z,6.80
2023-04-10T00:10:57.395Z,6.70
2023-04-10T00:13:26.130Z,6.70
2023-04-10T00:15:54.754Z,6.70
2023-04-10T00:18:23.526Z,6.80
2023-04-10T00:20:52.205Z,6.70
2023-04-10T00:23:21.000Z,6.70
2023-04-10T00:25:50.002Z,6.70
2023-04-10T00:28:20.063Z,6.70
2023-04-10T00:30:48.881Z,6.70
2023-04-10T00:33:17.626Z,6.70
2023-04-10T00:35:47.119Z,6.70
2023-04-10T00:38:15.971Z,6.70
2023-04-10T00:40:44.690Z,6.70
2023-04-10T00:43:13.945Z,6.70
2023-04-10T00:45:44.339Z,6.70
2023-04-10T00:48:13.732Z,6.70
2023-04-10T00:50:42.513Z,6.70
2023-04-10T00:53:11.309Z,6.60
2023-04-10T00:55:40.279Z,6.60
2023-04-10T00:58:08.971Z,6.70
2023-04-10T01:00:37.792Z,6.70
2023-04-10T01:03:08.349Z,6.70
2023-04-10T01:05:46.575Z,6.70
2023-04-10T01:08:37.941Z,6.70
2023-04-10T01:11:14.582Z,6.70
2023-04-10T01:13:54.500Z,6.70
2023-04-10T01:16:32.710Z,6.70
2023-04-10T01:19:16.426Z,6.70
2023-04-10T01:21:46.453Z,6.70
2023-04-10T01:24:43.033Z,6.70
2023-04-10T01:27:27.337Z,6.70
2023-04-10T01:30:01.232Z,6.60
2023-04-10T01:32:35.670Z,6.60
2023-04-10T01:35:09.902Z,6.60
2023-04-10T01:37:43.901Z,6.60
2023-04-10T01:40:19.253Z,6.70
2023-04-10T01:42:54.074Z,6.60
2023-04-10T01:45:29.719Z,6.60
2023-04-10T01:47:59.743Z,6.60
2023-04-10T01:50:31.796Z,6.60
2023-04-10T01:53:02.986Z,6.60
2023-04-10T01:55:34.385Z,6.50
2023-04-10T01:58:05.249Z,6.50
2023-04-10T02:00:43.176Z,6.50
2023-04-10T02:03:12.943Z,6.50
2023-04-10T02:05:56.547Z,6.50
2023-04-10T02:08:35.524Z,6.50
2023-04-10T02:11:14.422Z,6.40
2023-04-10T02:13:44.015Z,6.40
2023-04-10T02:16:18.512Z,6.50
2023-04-10T02:18:50.025Z,6.50
2023-04-10T02:21:18.997Z,6.50
2023-04-10T02:23:48.189Z,6.50
2023-04-10T02:26:16.968Z,6.60
2023-04-10T02:28:45.739Z,6.60
2023-04-10T02:31:15.963Z,6.60
2023-04-10T02:33:44.754Z,6.60
2023-04-10T02:36:14.262Z,6.60
2023-04-10T02:38:42.945Z,6.50
2023-04-10T02:41:11.818Z,6.50
2023-04-10T02:43:40.532Z,6.40
2023-04-10T02:46:09.246Z,6.40
2023-04-10T02:48:39.428Z,6.40
2023-04-10T02:51:09.099Z,6.40
2023-04-10T02:53:37.763Z,6.40
2023-04-10T02:56:08.281Z,6.50
2023-04-10T02:58:37.187Z,6.50
2023-04-10T03:01:08.095Z,6.50
2023-04-10T03:03:38.221Z,6.40
2023-04-10T03:06:08.136Z,6.40
2023-04-10T03:08:36.986Z,6.30
2023-04-10T03:11:06.052Z,6.30
2023-04-10T03:13:34.797Z,6.30
2023-04-10T03:16:03.563Z,6.30
2023-04-10T03:18:34.355Z,6.30
2023-04-10T03:21:04.557Z,6.30
2023-04-10T03:23:33.333Z,6.30
2023-04-10T03:26:02.047Z,6.30
2023-04-10T03:28:30.917Z,6.30
2023-04-10T03:30:59.594Z,6.40
2023-04-10T03:33:28.323Z,6.40
2023-04-10T03:35:57.414Z,6.40
2023-04-10T03:38:27.605Z,6.40
2023-04-10T03:40:56.418Z,6.50
2023-04-10T03:43:26.002Z,6.50
2023-04-10T03:45:54.734Z,6.50
2023-04-10T03:48:23.394Z,6.40
2023-04-10T03:50:52.237Z,6.30
2023-04-10T03:53:21.009Z,6.30
2023-04-10T03:55:52.509Z,6.20
2023-04-10T03:58:21.575Z,6.20
2023-04-10T04:00:50.398Z,6.20
2023-04-10T04:03:19.522Z,6.10
2023-04-10T04:05:48.332Z,6.10
2023-04-10T04:08:17.030Z,6.10
2023-04-10T04:10:45.742Z,6.10
2023-04-10T04:13:15.739Z,6.00
2023-04-10T04:15:44.410Z,6.00
2023-04-10T04:18:13.064Z,5.80
2023-04-10T04:20:41.950Z,5.90
2023-04-10T04:23:10.614Z,5.90
2023-04-10T04:25:39.255Z,5.90
2023-04-10T04:28:07.973Z,5.90
2023-04-10T04:30:38.113Z,5.90
2023-04-10T04:33:07.146Z,6.00
2023-04-10T04:35:36.043Z,6.00
2023-04-10T04:38:04.703Z,6.00
2023-04-10T04:40:33.567Z,6.00
2023-04-10T04:43:02.204Z,6.10
2023-04-10T04:45:31.122Z,6.20
2023-04-10T04:48:01.239Z,6.20
2023-04-10T04:50:30.005Z,6.30
2023-04-10T04:53:00.492Z,6.30
2023-04-10T04:55:29.205Z,6.50
2023-04-10T04:57:57.994Z,6.70
2023-04-10T05:00:26.659Z,6.90
2023-04-10T05:02:55.691Z,7.10
2023-04-10T05:05:26.150Z,7.50
2023-04-10T05:07:54.879Z,7.80
2023-04-10T05:10:23.621Z,8.00
2023-04-10T05:12:52.366Z,8.40
2023-04-10T05:15:21.042Z,8.70
2023-04-10T05:17:51.216Z,9.20
2023-04-10T05:20:21.834Z,9.70
2023-04-10T05:22:53.170Z,10.00
2023-04-10T05:25:22.157Z,10.20
2023-04-10T05:27:51.056Z,10.70
2023-04-10T05:30:20.012Z,10.80
2023-04-10T05:32:48.736Z,11.10
2023-04-10T05:35:17.597Z,11.30
2023-04-10T05:37:46.289Z,11.50
2023-04-10T05:40:16.788Z,11.70
2023-04-10T05:42:45.462Z,11.70
2023-04-10T05:45:15.199Z,11.40
2023-04-10T05:47:43.999Z,11.50
2023-04-10T05:50:12.825Z,11.60
2023-04-10T05:52:41.608Z,11.60
2023-04-10T05:55:11.222Z,11.70
2023-04-10T05:57:41.477Z,12.10
2023-04-10T06:00:12.037Z,12.30
2023-04-10T06:02:41.003Z,12.50
2023-04-10T06:05:10.818Z,12.70
2023-04-10T06:07:39.439Z,12.70
2023-04-10T06:10:10.102Z,12.80
2023-04-10T06:12:40.537Z,13.00
2023-04-10T06:15:10.676Z,13.50
2023-04-10T06:17:44.764Z,13.70
2023-04-10T06:20:14.186Z,14.00
2023-04-10T06:22:42.858Z,14.10
2023-04-10T06:25:11.857Z,14.30
2023-04-10T06:27:42.618Z,14.50
2023-04-10T06:30:12.144Z,14.50
2023-04-10T06:32:40.877Z,14.60
2023-04-10T06:35:10.716Z,14.60
2023-04-10T06:37:39.350Z,14.80
2023-04-10T06:40:11.375Z,15.20
2023-04-10T06:42:42.105Z,15.40
2023-04-10T06:45:12.257Z,15.10
2023-04-10T06:47:41.286Z,15.40
2023-04-10T06:50:10.985Z,15.70
2023-04-10T06:52:39.643Z,15.90
2023-04-10T06:55:09.674Z,16.30
2023-04-10T06:57:38.368Z,16.30
2023-04-10T07:00:10.608Z,16.90
2023-04-10T07:02:39.437Z,17.40
2023-04-10T07:05:08.860Z,17.60
2023-04-10T07:07:37.567Z,17.90
2023-04-10T07:10:07.676Z,18.40
2023-04-10T07:12:36.535Z,18.90
2023-04-10T07:15:08.343Z,18.80
2023-04-10T07:17:37.065Z,19.10
2023-04-10T07:20:07.862Z,19.70
2023-04-10T07:22:36.470Z,20.10
2023-04-10T07:25:07.243Z,20.10
2023-04-10T07:27:36.089Z,20.10
2023-04-10T07:30:05.224Z,20.20
2023-04-10T07:32:35.524Z,19.90
2023-04-10T07:35:04.511Z,20.10
2023-04-10T07:37:33.246Z,20.20
2023-04-10T07:40:02.648Z,20.10
2023-04-10T07:42:31.637Z,20.50
2023-04-10T07:45:00.327Z,19.90
2023-04-10T07:47:29.087Z,20.30
2023-04-10T07:49:59.150Z,20.60
2023-04-10T07:52:27.803Z,20.70
2023-04-10T07:54:56.431Z,20.30
2023-04-10T07:57:25.924Z,20.40
2023-04-10T07:59:54.633Z,20.50
2023-04-10T08:02:23.558Z,20.60
2023-04-10T08:04:52.612Z,20.60
2023-04-10T08:07:23.357Z,20.90
2023-04-10T08:09:51.959Z,21.20
2023-04-10T08:12:20.734Z,21.30
2023-04-10T08:14:51.713Z,21.60
2023-04-10T08:17:38.855Z,21.90
2023-04-10T08:20:09.917Z,21.90
2023-04-10T08:22:40.068Z,21.10
2023-04-10T08:25:09.748Z,21.00
2023-04-10T08:27:38.566Z,21.50
2023-04-10T08:30:08.957Z,21.90
2023-04-10T08:32:37.963Z,21.40
2023-04-10T08:35:07.970Z,21.60
2023-04-10T08:37:37.131Z,21.90
2023-04-10T08:40:08.897Z,20.90
2023-04-10T08:42:38.149Z,21.00
2023-04-10T08:45:08.262Z,20.70
2023-04-10T08:47:39.125Z,20.80
2023-04-10T08:50:12.187Z,21.00
2023-04-10T08:52:46.660Z,21.10
2023-04-10T08:55:17.183Z,20.70
2023-04-10T08:57:54.289Z,20.70
2023-04-10T09:00:31.692Z,21.40
2023-04-10T09:03:00.577Z,21.30
2023-04-10T09:05:30.901Z,21.00
2023-04-10T09:07:59.722Z,20.70
2023-04-10T09:10:30.069Z,20.20
2023-04-10T09:12:58.918Z,20.10
2023-04-10T09:15:27.722Z,20.90
2023-04-10T09:17:59.028Z,21.00
2023-04-10T09:20:31.838Z,20.80
2023-04-10T09:23:00.525Z,21.10
2023-04-10T09:25:37.152Z,21.30
2023-04-10T09:28:08.533Z,21.30
2023-04-10T09:30:40.154Z,21.40
2023-04-10T09:33:27.670Z,21.50
2023-04-10T09:36:00.057Z,21.20
2023-04-10T09:38:28.833Z,21.30
2023-04-10T09:41:09.262Z,21.10
2023-04-10T09:43:39.106Z,21.20
2023-04-10T09:46:08.299Z,21.40
2023-04-10T09:48:37.146Z,21.40
2023-04-10T09:51:06.418Z,21.00
2023-04-10T09:53:50.967Z,21.00
2023-04-10T09:56:21.689Z,20.90
2023-04-10T09:58:52.732Z,21.20
2023-04-10T10:01:23.703Z,21.30
2023-04-10T10:03:53.205Z,21.40
2023-04-10T10:06:22.740Z,20.90
2023-04-10T10:08:52.676Z,21.00
2023-04-10T10:11:27.281Z,20.80
2023-04-10T10:13:57.263Z,19.90
2023-04-10T10:16:35.553Z,20.60
2023-04-10T10:19:14.127Z,20.70
2023-04-10T10:21:45.866Z,20.70
2023-04-10T10:24:16.039Z,20.50
2023-04-10T10:26:48.360Z,20.20
2023-04-10T10:29:18.850Z,20.30
2023-04-10T10:31:49.384Z,20.60
2023-04-10T10:34:18.636Z,20.60
2023-04-10T10:36:47.468Z,20.70
2023-04-10T10:39:32.098Z,20.70
2023-04-10T10:42:16.221Z,20.60
2023-04-10T10:44:50.604Z,20.50
2023-04-10T10:47:25.525Z,20.20
2023-04-10T10:49:59.837Z,20.00
2023-04-10T10:52:47.014Z,20.10
2023-04-10T10:55:38.013Z,20.20
2023-04-10T10:58:11.358Z,20.20
2023-04-10T11:01:11.472Z,20.20
2023-04-10T11:03:40.872Z,20.30
2023-04-10T11:06:12.754Z,20.60
2023-04-10T11:08:47.651Z,20.40
2023-04-10T11:11:21.875Z,20.40
2023-04-10T11:14:21.586Z,20.40
2023-04-10T11:16:50.457Z,20.20
2023-04-10T11:19:22.648Z,20.30
2023-04-10T11:22:09.529Z,19.90
2023-04-10T11:25:02.666Z,19.80
2023-04-10T11:27:53.106Z,19.70
2023-04-10T11:30:35.614Z,19.90
2023-04-10T11:33:06.661Z,20.00
2023-04-10T11:35:35.667Z,20.20
2023-04-10T11:38:17.013Z,20.50
2023-04-10T11:41:04.545Z,20.30
2023-04-10T11:43:35.379Z,20.20
2023-04-10T11:46:08.772Z,20.20
2023-04-10T11:48:38.848Z,20.00
2023-04-10T11:51:15.699Z,20.40
2023-04-10T11:53:44.506Z,20.40
2023-04-10T11:56:22.603Z,20.40
2023-04-10T11:58:54.904Z,20.50
2023-04-10T12:01:26.265Z,20.20
2023-04-10T12:03:55.742Z,20.10
2023-04-10T12:06:25.876Z,19.80
2023-04-10T12:08:55.259Z,19.50
2023-04-10T12:11:26.797Z,19.60
2023-04-10T12:13:57.744Z,19.70
2023-04-10T12:16:28.687Z,19.40
2023-04-10T12:18:58.111Z,19.20
2023-04-10T12:21:27.482Z,19.30
2023-04-10T12:23:56.220Z,19.50
2023-04-10T12:26:25.089Z,18.90
2023-04-10T12:28:57.712Z,18.80
2023-04-10T12:31:32.606Z,18.40
2023-04-10T12:34:03.257Z,18.40
2023-04-10T12:36:35.058Z,18.60
2023-04-10T12:39:06.709Z,18.70
2023-04-10T12:41:36.739Z,18.80
2023-04-10T12:44:11.420Z,18.90
2023-04-10T12:46:43.096Z,18.70
2023-04-10T12:49:14.306Z,18.50
2023-04-10T12:51:52.131Z,18.70
2023-04-10T12:54:33.382Z,18.50
2023-04-10T12:57:04.099Z,18.50
2023-04-10T12:59:33.851Z,18.80
2023-04-10T13:02:04.147Z,19.00
2023-04-10T13:04:33.506Z,18.80
2023-04-10T13:07:02.378Z,18.60
2023-04-10T13:09:31.344Z,18.60
2023-04-10T13:12:00.246Z,18.80
2023-04-10T13:14:47.869Z,18.80
2023-04-10T13:17:17.989Z,18.60
2023-04-10T13:19:46.630Z,18.60
2023-04-10T13:22:15.693Z,18.80
2023-04-10T13:24:46.680Z,18.70
2023-04-10T13:27:15.893Z,18.60
2023-04-10T13:29:45.111Z,18.50
2023-04-10T13:32:13.774Z,18.60
2023-04-10T13:34:43.952Z,18.60
2023-04-10T13:37:13.803Z,18.70
2023-04-10T13:39:43.577Z,19.10
2023-04-10T13:42:12.247Z,19.20
2023-04-10T13:44:40.944Z,19.00
2023-04-10T13:47:09.942Z,18.90
2023-04-10T13:49:38.646Z,18.90
2023-04-10T13:52:08.860Z,19.00
2023-04-10T13:54:37.548Z,18.90
2023-04-10T13:57:06.246Z,18.80
2023-04-10T13:59:35.072Z,18.80
2023-04-10T14:02:03.807Z,18.90
2023-04-10T14:04:32.522Z,18.80
2023-04-10T14:07:02.218Z,18.80
2023-04-10T14:09:32.378Z,18.50
2023-04-10T14:12:02.052Z,18.40
2023-04-10T14:14:30.757Z,18.20
2023-04-10T14:16:59.467Z,18.10
2023-04-10T14:19:28.316Z,18.20
2023-04-10T14:21:56.947Z,18.10
2023-04-10T14:24:25.669Z,18.00
2023-04-10T14:26:58.442Z,17.80
2023-04-10T14:29:36.374Z,17.70
2023-04-10T14:32:08.322Z,18.00
2023-04-10T14:34:37.063Z,17.60
2023-04-10T14:37:05.778Z,17.80
2023-04-10T14:39:34.431Z,17.80
2023-04-10T14:42:04.552Z,17.90
2023-04-10T14:44:33.488Z,17.90
2023-04-10T14:47:02.230Z,17.90
2023-04-10T14:49:30.915Z,18.10
2023-04-10T14:51:59.592Z,18.20
2023-04-10T14:54:28.314Z,18.10
2023-04-10T14:56:57.217Z,18.00
2023-04-10T14:59:27.736Z,17.70
2023-04-10T15:01:56.525Z,17.80
2023-04-10T15:04:25.562Z,17.70
2023-04-10T15:06:54.336Z,17.70
2023-04-10T15:09:23.057Z,17.70
2023-04-10T15:11:51.799Z,17.50
2023-04-10T15:14:20.544Z,17.60
2023-04-10T15:16:52.679Z,17.50
2023-04-10T15:19:22.691Z,17.60
2023-04-10T15:21:54.093Z,17.50
2023-04-10T15:24:22.867Z,17.50
2023-04-10T15:26:53.628Z,17.40
2023-04-10T15:29:22.314Z,17.40
2023-04-10T15:31:52.505Z,17.40
2023-04-10T15:34:21.290Z,17.40
2023-04-10T15:36:49.976Z,17.40
2023-04-10T15:39:18.651Z,17.50
2023-04-10T15:41:49.651Z,17.60
2023-04-10T15:44:18.554Z,17.50
2023-04-10T15:46:47.751Z,17.40
2023-04-10T15:49:29.929Z,17.60
2023-04-10T15:52:06.056Z,17.50
2023-04-10T15:54:35.281Z,17.60
2023-04-10T15:57:04.475Z,17.60
2023-04-10T15:59:35.976Z,17.60
2023-04-10T16:02:04.858Z,17.30
2023-04-10T16:04:35.359Z,17.10
2023-04-10T16:07:04.188Z,17.00
2023-04-10T16:09:32.781Z,16.80
2023-04-10T16:12:02.163Z,16.70
2023-04-10T16:14:31.014Z,16.60
2023-04-10T16:16:59.793Z,16.50
2023-04-10T16:19:31.816Z,16.60
2023-04-10T16:22:01.972Z,16.60
2023-04-10T16:24:30.680Z,16.60
2023-04-10T16:26:59.307Z,16.60
2023-04-10T16:29:28.876Z,16.60
2023-04-10T16:31:57.710Z,16.50
2023-04-10T16:34:26.454Z,16.50
2023-04-10T16:36:55.359Z,16.40
2023-04-10T16:39:25.860Z,16.40
2023-04-10T16:41:54.828Z,16.30
2023-04-10T16:44:23.674Z,16.30
2023-04-10T16:46:52.537Z,16.30
2023-04-10T16:49:22.584Z,16.30
2023-04-10T16:51:51.927Z,16.20
2023-04-10T16:54:20.927Z,16.10
2023-04-10T16:56:51.339Z,16.10
2023-04-10T16:59:20.114Z,16.00
2023-04-10T17:01:49.231Z,15.90
2023-04-10T17:04:19.680Z,15.90
2023-04-10T17:06:48.590Z,15.70
2023-04-10T17:09:17.408Z,15.60
2023-04-10T17:11:46.366Z,15.70
2023-04-10T17:14:16.532Z,15.60
2023-04-10T17:16:45.839Z,15.50
2023-04-10T17:19:14.676Z,15.50
2023-04-10T17:21:43.518Z,15.40
2023-04-10T17:24:12.268Z,15.40
2023-04-10T17:26:41.229Z,15.20
2023-04-10T17:29:10.075Z,15.00
2023-04-10T17:31:40.567Z,15.00
2023-04-10T17:34:09.551Z,15.00
2023-04-10T17:36:38.410Z,15.00
2023-04-10T17:39:07.368Z,15.00
2023-04-10T17:41:36.230Z,14.90
2023-04-10T17:44:05.710Z,14.80
2023-04-10T17:46:34.499Z,14.90
2023-04-10T17:49:07.460Z,14.90
2023-04-10T17:51:36.362Z,14.70
2023-04-10T17:54:05.325Z,14.80
2023-04-10T17:56:34.080Z,14.70
2023-04-10T17:59:02.926Z,14.70
2023-04-10T18:01:31.753Z,14.60
2023-04-10T18:04:02.808Z,14.50
2023-04-10T18:06:33.205Z,14.50
2023-04-10T18:09:02.432Z,14.60
2023-04-10T18:11:31.424Z,14.50
2023-04-10T18:14:01.605Z,14.50
2023-04-10T18:16:32.670Z,14.50
2023-04-10T18:19:01.657Z,14.40
2023-04-10T18:21:31.693Z,14.50
2023-04-10T18:24:02.276Z,14.30
2023-04-10T18:26:36.228Z,14.20
2023-04-10T18:29:05.504Z,14.10
2023-04-10T18:31:34.544Z,14.10
2023-04-10T18:34:07.593Z,14.00
2023-04-10T18:36:37.162Z,13.90
2023-04-10T18:39:07.420Z,13.80
2023-04-10T18:41:36.950Z,13.90
2023-04-10T18:44:06.279Z,13.80
2023-04-10T18:46:35.203Z,13.70
2023-04-10T18:49:04.195Z,13.70
2023-04-10T18:51:35.587Z,13.70
2023-04-10T18:54:06.500Z,13.80
2023-04-10T18:56:36.018Z,13.90
2023-04-10T18:59:05.509Z,13.90
2023-04-10T19:01:34.339Z,14.00
2023-04-10T19:04:03.185Z,13.90
2023-04-10T19:06:32.531Z,13.90
2023-04-10T19:09:01.508Z,13.90
2023-04-10T19:11:31.629Z,13.70
2023-04-10T19:14:00.264Z,13.70
2023-04-10T19:16:28.931Z,13.70
2023-04-10T19:18:57.746Z,13.80
2023-04-10T19:21:27.819Z,13.70
2023-04-10T19:23:56.663Z,13.60
2023-04-10T19:26:25.581Z,13.60
2023-04-10T19:28:55.910Z,13.50
2023-04-10T19:31:27.729Z,13.50
2023-04-10T19:33:57.265Z,13.50
2023-04-10T19:36:27.325Z,13.40
2023-04-10T19:38:57.507Z,13.40
2023-04-10T19:41:26.504Z,13.40
2023-04-10T19:43:56.869Z,13.40
2023-04-10T19:46:28.900Z,13.40
2023-04-10T19:48:57.534Z,13.30
2023-04-10T19:51:26.985Z,13.10
2023-04-10T19:53:57.853Z,13.10
2023-04-10T19:56:28.669Z,13.00
2023-04-10T19:58:59.159Z,12.90
2023-04-10T20:01:28.177Z,12.80
2023-04-10T20:03:56.979Z,12.60
2023-04-10T20:06:27.371Z,12.40
2023-04-10T20:08:56.449Z,12.50
2023-04-10T20:11:30.707Z,12.50
2023-04-10T20:14:01.291Z,12.50
2023-04-10T20:16:30.243Z,12.50
2023-04-10T20:18:59.299Z,12.50
2023-04-10T20:21:28.575Z,12.40
2023-04-10T20:23:57.801Z,12.20
2023-04-10T20:26:26.808Z,12.10
2023-04-10T20:28:56.062Z,12.20
2023-04-10T20:31:26.708Z,12.20
2023-04-10T20:33:55.365Z,12.10
2023-04-10T20:36:24.041Z,12.20
2023-04-10T20:38:53.174Z,12.10
2023-04-10T20:41:22.695Z,12.00
2023-04-10T20:43:52.093Z,12.10
2023-04-10T20:46:20.804Z,12.00
2023-04-10T20:48:50.846Z,12.10
2023-04-10T20:51:19.563Z,11.90
2023-04-10T20:53:48.282Z,11.90
2023-04-10T20:56:17.117Z,11.70
2023-04-10T20:58:45.866Z,11.80
2023-04-10T21:01:16.849Z,11.80
2023-04-10T21:03:45.862Z,11.70
2023-04-10T21:06:16.894Z,11.70
2023-04-10T21:08:45.653Z,11.70
2023-04-10T21:11:14.336Z,11.70
2023-04-10T21:13:43.157Z,11.70
2023-04-10T21:16:11.981Z,11.60
2023-04-10T21:18:40.810Z,11.50
2023-04-10T21:21:10.381Z,11.50
2023-04-10T21:23:40.499Z,11.50
2023-04-10T21:26:09.493Z,11.30
2023-04-10T21:28:38.194Z,11.30
2023-04-10T21:31:07.169Z,11.30
2023-04-10T21:33:36.024Z,11.20
2023-04-10T21:36:06.592Z,11.20
2023-04-10T21:38:35.457Z,11.20
2023-04-10T21:41:05.825Z,11.10
2023-04-10T21:43:35.385Z,11.10
2023-04-10T21:46:04.178Z,11.10
2023-04-10T21:48:35.861Z,11.10
2023-04-10T21:51:04.992Z,11.10
2023-04-10T21:53:36.918Z,11.10
2023-04-10T21:56:08.038Z,11.20
2023-04-10T21:58:38.198Z,11.10
2023-04-10T22:01:08.579Z,10.80
2023-04-10T22:03:37.359Z,10.90
2023-04-10T22:06:06.412Z,10.90
2023-04-10T22:08:35.058Z,10.90
2023-04-10T22:11:03.803Z,10.80
2023-04-10T22:13:34.134Z,10.70
2023-04-10T22:16:03.047Z,10.60
2023-04-10T22:18:32.011Z,10.60
2023-04-10T22:21:00.767Z,10.70
2023-04-10T22:23:29.394Z,10.70
2023-04-10T22:26:00.865Z,10.60
2023-04-10T22:28:29.732Z,10.60
2023-04-10T22:30:59.906Z,10.60
2023-04-10T22:33:28.649Z,10.60
2023-04-10T22:35:57.290Z,10.60
2023-04-10T22:38:26.012Z,10.60
2023-04-10T22:40:56.104Z,10.60
2023-04-10T22:43:24.943Z,10.50
2023-04-10T22:45:53.728Z,10.50
2023-04-10T22:48:23.878Z,10.60
2023-04-10T22:50:52.518Z,10.50
2023-04-10T22:53:21.212Z,10.50
2023-04-10T22:55:49.799Z,10.40
2023-04-10T22:58:18.539Z,10.30
2023-04-10T23:00:47.133Z,10.30
2023-04-10T23:03:16.079Z,10.20
2023-04-10T23:05:47.081Z,10.20
2023-04-10T23:08:15.970Z,10.20
2023-04-10T23:10:44.888Z,10.10
2023-04-10T23:13:13.454Z,10.10
2023-04-10T23:15:42.104Z,10.20
2023-04-10T23:18:12.158Z,10.10
2023-04-10T23:20:40.924Z,10.10
2023-04-10T23:23:11.082Z,10.00
2023-04-10T23:25:39.974Z,9.80
2023-04-10T23:28:08.714Z,9.60
2023-04-10T23:30:38.125Z,9.70
2023-04-10T23:33:06.780Z,9.70
2023-04-10T23:35:35.616Z,9.80
2023-04-10T23:38:04.327Z,9.80
2023-04-10T23:40:34.558Z,9.80
2023-04-10T23:43:03.328Z,9.60
2023-04-10T23:45:32.024Z,9.60
2023-04-10T23:48:00.721Z,9.50
2023-04-10T23:50:29.397Z,9.50
2023-04-10T23:52:59.449Z,9.30
2023-04-10T23:55:28.411Z,9.40
2023-04-10T23:57:58.488Z,9.40
